sensor_id;sensor_type;location;lat;lon;timestamp;pressure;altitude;pressure_sealevel;temperature;humidity
29549;BME280;16487;53.094;8.800;2023-06-22T00:00:05;99653.31;;;19.49;100.00
29549;BME280;16487;53.094;8.800;2023-06-22T00:02:59;99661.63;;;19.42;100.00
29549;BME280;16487;53.094;8.800;2023-06-22T00:05:48;99659.75;;;19.50;100.00
29549;BME280;16487;53.094;8.800;2023-06-22T00:08:36;99671.69;;;19.37;100.00
29549;BME280;16487;53.094;8.800;2023-06-22T00:11:23;99660.84;;;19.41;100.00
29549;BME280;16487;53.094;8.800;2023-06-22T00:14:11;99665.34;;;19.25;100.00
29549;BME280;16487;53.094;8.800;2023-06-22T00:16:59;99658.56;;;19.39;100.00
29549;BME280;16487;53.094;8.800;2023-06-22T00:19:48;99658.25;;;19.43;100.00
29549;BME280;16487;53.094;8.800;2023-06-22T00:22:37;99664.97;;;19.40;100.00
29549;BME280;16487;53.094;8.800;2023-06-22T00:25:25;99663.47;;;19.39;100.00
29549;BME280;16487;53.094;8.800;2023-06-22T00:28:12;99649.22;;;19.20;100.00
29549;BME280;16487;53.094;8.800;2023-06-22T00:31:00;99648.22;;;19.18;100.00
29549;BME280;16487;53.094;8.800;2023-06-22T00:33:48;99640.28;;;19.16;100.00
29549;BME280;16487;53.094;8.800;2023-06-22T00:36:37;99637.56;;;19.29;100.00
29549;BME280;16487;53.094;8.800;2023-06-22T00:39:25;99650.22;;;19.23;100.00
29549;BME280;16487;53.094;8.800;2023-06-22T00:42:12;99645.34;;;19.23;100.00
29549;BME280;16487;53.094;8.800;2023-06-22T00:45:00;99641.16;;;19.06;100.00
29549;BME280;16487;53.094;8.800;2023-06-22T00:47:48;99639.91;;;19.01;100.00
29549;BME280;16487;53.094;8.800;2023-06-22T00:50:36;99639.25;;;18.90;100.00
29549;BME280;16487;53.094;8.800;2023-06-22T00:53:25;99644.41;;;18.86;100.00
29549;BME280;16487;53.094;8.800;2023-06-22T00:56:14;99640.88;;;18.80;100.00
29549;BME280;16487;53.094;8.800;2023-06-22T00:59:02;99649.94;;;18.73;100.00
29549;BME280;16487;53.094;8.800;2023-06-22T01:01:50;99645.69;;;18.90;100.00
29549;BME280;16487;53.094;8.800;2023-06-22T01:04:39;99648.06;;;18.81;100.00
29549;BME280;16487;53.094;8.800;2023-06-22T01:07:34;99644.31;;;18.67;100.00
29549;BME280;16487;53.094;8.800;2023-06-22T01:10:27;99651.31;;;18.61;100.00
29549;BME280;16487;53.094;8.800;2023-06-22T01:13:24;99649.09;;;18.48;100.00
29549;BME280;16487;53.094;8.800;2023-06-22T01:16:16;99657.03;;;18.50;100.00
29549;BME280;16487;53.094;8.800;2023-06-22T01:19:13;99664.63;;;18.66;100.00
29549;BME280;16487;53.094;8.800;2023-06-22T01:22:04;99658.00;;;18.58;100.00
29549;BME280;16487;53.094;8.800;2023-06-22T01:25:09;99658.84;;;18.47;100.00
29549;BME280;16487;53.094;8.800;2023-06-22T01:28:05;99663.72;;;18.47;100.00
29549;BME280;16487;53.094;8.800;2023-06-22T01:31:03;99651.50;;;18.27;100.00
29549;BME280;16487;53.094;8.800;2023-06-22T01:33:55;99671.25;;;18.27;100.00
29549;BME280;16487;53.094;8.800;2023-06-22T01:36:44;99677.44;;;18.26;100.00
29549;BME280;16487;53.094;8.800;2023-06-22T01:39:33;99683.75;;;18.38;100.00
29549;BME280;16487;53.094;8.800;2023-06-22T01:42:23;99677.44;;;18.26;100.00
29549;BME280;16487;53.094;8.800;2023-06-22T01:45:12;99675.94;;;18.19;100.00
29549;BME280;16487;53.094;8.800;2023-06-22T01:48:01;99693.56;;;18.25;100.00
29549;BME280;16487;53.094;8.800;2023-06-22T01:50:50;99684.31;;;18.30;100.00
29549;BME280;16487;53.094;8.800;2023-06-22T01:53:37;99687.09;;;18.42;100.00
29549;BME280;16487;53.094;8.800;2023-06-22T01:56:26;99669.78;;;18.15;100.00
29549;BME280;16487;53.094;8.800;2023-06-22T01:59:20;99680.81;;;18.13;100.00
29549;BME280;16487;53.094;8.800;2023-06-22T02:02:11;99730.78;;;18.24;100.00
29549;BME280;16487;53.094;8.800;2023-06-22T02:05:06;99737.03;;;18.00;100.00
29549;BME280;16487;53.094;8.800;2023-06-22T02:08:01;99737.22;;;18.19;100.00
29549;BME280;16487;53.094;8.800;2023-06-22T02:10:52;99737.19;;;18.24;100.00
29549;BME280;16487;53.094;8.800;2023-06-22T02:13:41;99743.66;;;18.14;100.00
29549;BME280;16487;53.094;8.800;2023-06-22T02:16:30;99753.41;;;18.07;100.00
29549;BME280;16487;53.094;8.800;2023-06-22T02:19:22;99749.84;;;17.96;100.00
29549;BME280;16487;53.094;8.800;2023-06-22T02:22:12;99748.84;;;17.93;100.00
29549;BME280;16487;53.094;8.800;2023-06-22T02:24:59;99764.72;;;17.96;100.00
29549;BME280;16487;53.094;8.800;2023-06-22T02:27:47;99770.34;;;18.07;100.00
29549;BME280;16487;53.094;8.800;2023-06-22T02:30:37;99786.50;;;17.96;100.00
29549;BME280;16487;53.094;8.800;2023-06-22T02:33:27;99796.78;;;17.93;100.00
29549;BME280;16487;53.094;8.800;2023-06-22T02:36:15;99804.47;;;17.87;100.00
29549;BME280;16487;53.094;8.800;2023-06-22T02:39:04;99819.84;;;17.92;100.00
29549;BME280;16487;53.094;8.800;2023-06-22T02:41:52;99817.53;;;17.96;100.00
29549;BME280;16487;53.094;8.800;2023-06-22T02:44:42;99819.06;;;17.97;100.00
29549;BME280;16487;53.094;8.800;2023-06-22T02:47:30;99813.44;;;18.02;100.00
29549;BME280;16487;53.094;8.800;2023-06-22T02:50:18;99813.69;;;17.93;100.00
29549;BME280;16487;53.094;8.800;2023-06-22T02:53:06;99826.25;;;17.98;100.00
29549;BME280;16487;53.094;8.800;2023-06-22T02:55:58;99828.31;;;17.86;100.00
29549;BME280;16487;53.094;8.800;2023-06-22T02:58:46;99828.34;;;17.75;100.00
29549;BME280;16487;53.094;8.800;2023-06-22T03:01:34;99828.06;;;17.73;100.00
29549;BME280;16487;53.094;8.800;2023-06-22T03:04:22;99838.09;;;17.69;100.00
29549;BME280;16487;53.094;8.800;2023-06-22T03:07:10;99851.66;;;17.76;100.00
29549;BME280;16487;53.094;8.800;2023-06-22T03:09:58;99853.19;;;17.82;100.00
29549;BME280;16487;53.094;8.800;2023-06-22T03:12:47;99850.09;;;17.91;100.00
29549;BME280;16487;53.094;8.800;2023-06-22T03:15:34;99844.19;;;17.84;100.00
29549;BME280;16487;53.094;8.800;2023-06-22T03:18:22;99836.25;;;17.93;100.00
29549;BME280;16487;53.094;8.800;2023-06-22T03:21:10;99831.91;;;17.81;100.00
29549;BME280;16487;53.094;8.800;2023-06-22T03:23:57;99845.75;;;17.74;100.00
29549;BME280;16487;53.094;8.800;2023-06-22T03:26:45;99846.28;;;17.78;100.00
29549;BME280;16487;53.094;8.800;2023-06-22T03:29:34;99838.56;;;18.00;100.00
29549;BME280;16487;53.094;8.800;2023-06-22T03:32:22;99834.69;;;17.92;100.00
29549;BME280;16487;53.094;8.800;2023-06-22T03:35:09;99827.53;;;18.02;100.00
29549;BME280;16487;53.094;8.800;2023-06-22T03:37:57;99826.22;;;18.03;100.00
29549;BME280;16487;53.094;8.800;2023-06-22T03:40:45;99838.81;;;18.02;100.00
29549;BME280;16487;53.094;8.800;2023-06-22T03:43:33;99842.91;;;17.96;100.00
29549;BME280;16487;53.094;8.800;2023-06-22T03:46:22;99847.00;;;18.00;100.00
29549;BME280;16487;53.094;8.800;2023-06-22T03:49:09;99843.69;;;17.96;100.00
29549;BME280;16487;53.094;8.800;2023-06-22T03:51:57;99848.00;;;17.97;100.00
29549;BME280;16487;53.094;8.800;2023-06-22T03:54:45;99854.16;;;18.01;100.00
29549;BME280;16487;53.094;8.800;2023-06-22T03:57:32;99857.50;;;18.00;100.00
29549;BME280;16487;53.094;8.800;2023-06-22T04:00:20;99847.25;;;18.02;100.00
29549;BME280;16487;53.094;8.800;2023-06-22T04:03:09;99846.50;;;17.96;100.00
29549;BME280;16487;53.094;8.800;2023-06-22T04:05:57;99843.41;;;18.05;100.00
29549;BME280;16487;53.094;8.800;2023-06-22T04:08:45;99844.72;;;17.93;100.00
29549;BME280;16487;53.094;8.800;2023-06-22T04:11:33;99851.34;;;18.07;100.00
29549;BME280;16487;53.094;8.800;2023-06-22T04:14:20;99843.34;;;18.16;100.00
29549;BME280;16487;53.094;8.800;2023-06-22T04:17:08;99836.72;;;18.14;100.00
29549;BME280;16487;53.094;8.800;2023-06-22T04:19:57;99837.97;;;18.13;100.00
29549;BME280;16487;53.094;8.800;2023-06-22T04:22:45;99834.34;;;18.23;100.00
29549;BME280;16487;53.094;8.800;2023-06-22T04:25:33;99837.16;;;18.35;100.00
29549;BME280;16487;53.094;8.800;2023-06-22T04:28:21;99837.16;;;18.40;100.00
29549;BME280;16487;53.094;8.800;2023-06-22T04:31:09;99832.03;;;18.39;100.00
29549;BME280;16487;53.094;8.800;2023-06-22T04:33:56;99830.28;;;18.24;100.00
29549;BME280;16487;53.094;8.800;2023-06-22T04:36:45;99822.25;;;18.45;100.00
29549;BME280;16487;53.094;8.800;2023-06-22T04:39:33;99818.41;;;18.48;100.00
29549;BME280;16487;53.094;8.800;2023-06-22T04:42:21;99823.22;;;18.59;100.00
29549;BME280;16487;53.094;8.800;2023-06-22T04:45:09;99824.25;;;18.61;100.00
29549;BME280;16487;53.094;8.800;2023-06-22T04:47:57;99821.94;;;18.60;100.00
29549;BME280;16487;53.094;8.800;2023-06-22T04:50:45;99817.03;;;18.66;100.00
29549;BME280;16487;53.094;8.800;2023-06-22T04:53:34;99822.44;;;18.64;100.00
29549;BME280;16487;53.094;8.800;2023-06-22T04:56:21;99821.88;;;18.71;100.00
29549;BME280;16487;53.094;8.800;2023-06-22T04:59:09;99817.03;;;18.66;100.00
29549;BME280;16487;53.094;8.800;2023-06-22T05:01:58;99822.44;;;18.64;100.00
29549;BME280;16487;53.094;8.800;2023-06-22T05:04:46;99821.38;;;18.67;100.00
29549;BME280;16487;53.094;8.800;2023-06-22T05:07:34;99818.63;;;18.56;100.00
29549;BME280;16487;53.094;8.800;2023-06-22T05:10:23;99815.25;;;18.63;100.00
29549;BME280;16487;53.094;8.800;2023-06-22T05:13:10;99826.78;;;18.65;100.00
29549;BME280;16487;53.094;8.800;2023-06-22T05:15:58;99817.19;;;18.79;100.00
29549;BME280;16487;53.094;8.800;2023-06-22T05:18:46;99810.22;;;18.91;100.00
29549;BME280;16487;53.094;8.800;2023-06-22T05:21:34;99807.56;;;19.04;100.00
29549;BME280;16487;53.094;8.800;2023-06-22T05:24:21;99784.19;;;19.03;100.00
29549;BME280;16487;53.094;8.800;2023-06-22T05:27:10;99779.44;;;19.17;100.00
29549;BME280;16487;53.094;8.800;2023-06-22T05:29:58;99761.06;;;19.40;100.00
29549;BME280;16487;53.094;8.800;2023-06-22T05:32:46;99733.28;;;19.44;100.00
29549;BME280;16487;53.094;8.800;2023-06-22T05:35:33;99717.59;;;19.67;100.00
29549;BME280;16487;53.094;8.800;2023-06-22T05:38:21;99711.59;;;19.76;100.00
29549;BME280;16487;53.094;8.800;2023-06-22T05:41:09;99693.59;;;19.98;100.00
29549;BME280;16487;53.094;8.800;2023-06-22T05:43:58;99688.25;;;19.94;100.00
29549;BME280;16487;53.094;8.800;2023-06-22T05:46:45;99680.69;;;20.02;100.00
29549;BME280;16487;53.094;8.800;2023-06-22T05:49:33;99675.72;;;20.08;100.00
29549;BME280;16487;53.094;8.800;2023-06-22T05:52:21;99675.50;;;20.25;100.00
29549;BME280;16487;53.094;8.800;2023-06-22T05:55:09;99685.28;;;20.42;100.00
29549;BME280;16487;53.094;8.800;2023-06-22T05:57:56;99687.56;;;20.63;100.00
29549;BME280;16487;53.094;8.800;2023-06-22T06:00:45;99701.91;;;20.83;100.00
29549;BME280;16487;53.094;8.800;2023-06-22T06:03:33;99718.16;;;20.83;100.00
29549;BME280;16487;53.094;8.800;2023-06-22T06:06:21;99744.16;;;21.00;100.00
29549;BME280;16487;53.094;8.800;2023-06-22T06:09:08;99751.06;;;20.86;100.00
29549;BME280;16487;53.094;8.800;2023-06-22T06:11:56;99767.47;;;20.74;100.00
29549;BME280;16487;53.094;8.800;2023-06-22T06:14:44;99760.72;;;20.59;100.00
29549;BME280;16487;53.094;8.800;2023-06-22T06:17:33;99754.44;;;20.47;100.00
29549;BME280;16487;53.094;8.800;2023-06-22T06:20:23;99760.88;;;20.47;100.00
29549;BME280;16487;53.094;8.800;2023-06-22T06:23:11;99758.97;;;20.37;100.00
29549;BME280;16487;53.094;8.800;2023-06-22T06:25:59;99734.25;;;20.37;100.00
29549;BME280;16487;53.094;8.800;2023-06-22T06:28:46;99732.81;;;20.49;100.00
29549;BME280;16487;53.094;8.800;2023-06-22T06:31:34;99736.44;;;20.82;100.00
29549;BME280;16487;53.094;8.800;2023-06-22T06:34:23;99749.94;;;21.07;100.00
29549;BME280;16487;53.094;8.800;2023-06-22T06:37:11;99768.75;;;20.73;100.00
29549;BME280;16487;53.094;8.800;2023-06-22T06:39:59;99765.53;;;21.01;100.00
29549;BME280;16487;53.094;8.800;2023-06-22T06:42:47;99777.66;;;21.14;100.00
29549;BME280;16487;53.094;8.800;2023-06-22T06:45:36;99798.72;;;21.19;100.00
29549;BME280;16487;53.094;8.800;2023-06-22T06:48:24;99829.19;;;21.31;100.00
29549;BME280;16487;53.094;8.800;2023-06-22T06:51:13;99850.47;;;21.38;100.00
29549;BME280;16487;53.094;8.800;2023-06-22T06:54:01;99876.03;;;21.51;100.00
29549;BME280;16487;53.094;8.800;2023-06-22T06:56:49;99907.41;;;21.72;100.00
29549;BME280;16487;53.094;8.800;2023-06-22T06:59:37;99931.50;;;21.65;100.00
29549;BME280;16487;53.094;8.800;2023-06-22T07:02:25;99955.44;;;22.01;100.00
29549;BME280;16487;53.094;8.800;2023-06-22T07:05:13;99985.75;;;21.93;100.00
29549;BME280;16487;53.094;8.800;2023-06-22T07:08:03;100007.25;;;22.20;100.00
29549;BME280;16487;53.094;8.800;2023-06-22T07:10:51;100037.56;;;22.12;100.00
29549;BME280;16487;53.094;8.800;2023-06-22T07:13:39;100065.09;;;22.17;100.00
29549;BME280;16487;53.094;8.800;2023-06-22T07:16:27;100093.53;;;22.30;100.00
29549;BME280;16487;53.094;8.800;2023-06-22T07:19:15;100140.50;;;22.31;100.00
29549;BME280;16487;53.094;8.800;2023-06-22T07:22:03;100188.44;;;22.53;100.00
29549;BME280;16487;53.094;8.800;2023-06-22T07:24:52;100232.38;;;22.71;100.00
29549;BME280;16487;53.094;8.800;2023-06-22T07:27:43;100282.41;;;22.93;100.00
29549;BME280;16487;53.094;8.800;2023-06-22T07:30:32;100317.53;;;22.95;100.00
29549;BME280;16487;53.094;8.800;2023-06-22T07:33:21;100389.59;;;22.98;100.00
29549;BME280;16487;53.094;8.800;2023-06-22T07:36:08;100434.78;;;23.20;100.00
29549;BME280;16487;53.094;8.800;2023-06-22T07:38:56;100499.09;;;23.23;100.00
29549;BME280;16487;53.094;8.800;2023-06-22T07:41:45;100568.66;;;23.46;100.00
29549;BME280;16487;53.094;8.800;2023-06-22T07:44:33;100585.47;;;23.44;100.00
29549;BME280;16487;53.094;8.800;2023-06-22T07:47:20;100572.66;;;23.56;100.00
29549;BME280;16487;53.094;8.800;2023-06-22T07:50:09;100617.41;;;23.74;100.00
29549;BME280;16487;53.094;8.800;2023-06-22T07:52:57;100654.50;;;23.87;100.00
29549;BME280;16487;53.094;8.800;2023-06-22T07:55:44;100703.59;;;23.93;100.00
29549;BME280;16487;53.094;8.800;2023-06-22T07:58:36;100774.44;;;23.78;100.00
29549;BME280;16487;53.094;8.800;2023-06-22T08:01:23;100928.78;;;23.95;100.00
29549;BME280;16487;53.094;8.800;2023-06-22T08:04:11;101149.34;;;24.05;100.00
29549;BME280;16487;53.094;8.800;2023-06-22T08:06:59;101217.72;;;23.94;100.00
29549;BME280;16487;53.094;8.800;2023-06-22T08:09:47;101229.50;;;24.20;100.00
29549;BME280;16487;53.094;8.800;2023-06-22T08:12:35;101298.16;;;24.22;100.00
29549;BME280;16487;53.094;8.800;2023-06-22T08:15:26;101315.16;;;24.39;100.00
29549;BME280;16487;53.094;8.800;2023-06-22T08:18:14;101305.28;;;24.40;100.00
29549;BME280;16487;53.094;8.800;2023-06-22T08:21:02;101334.09;;;24.36;100.00
29549;BME280;16487;53.094;8.800;2023-06-22T08:23:52;101401.59;;;24.58;100.00
29549;BME280;16487;53.094;8.800;2023-06-22T08:26:42;101472.28;;;24.81;100.00
29549;BME280;16487;53.094;8.800;2023-06-22T08:29:30;101531.59;;;25.00;100.00
29549;BME280;16487;53.094;8.800;2023-06-22T08:32:19;101572.41;;;25.46;100.00
29549;BME280;16487;53.094;8.800;2023-06-22T08:35:07;101605.88;;;25.46;100.00
29549;BME280;16487;53.094;8.800;2023-06-22T08:37:55;101667.53;;;25.71;100.00
29549;BME280;16487;53.094;8.800;2023-06-22T08:40:43;101675.31;;;25.70;100.00
29549;BME280;16487;53.094;8.800;2023-06-22T08:43:30;101703.53;;;25.90;100.00
29549;BME280;16487;53.094;8.800;2023-06-22T08:46:18;101733.19;;;26.34;100.00
29549;BME280;16487;53.094;8.800;2023-06-22T08:49:08;101771.75;;;26.16;100.00
29549;BME280;16487;53.094;8.800;2023-06-22T08:51:57;101785.09;;;25.91;100.00
29549;BME280;16487;53.094;8.800;2023-06-22T08:54:44;101790.50;;;26.06;100.00
29549;BME280;16487;53.094;8.800;2023-06-22T08:57:33;101803.59;;;26.42;100.00
29549;BME280;16487;53.094;8.800;2023-06-22T09:00:21;101824.09;;;26.41;100.00
29549;BME280;16487;53.094;8.800;2023-06-22T09:03:08;101844.13;;;26.41;100.00
29549;BME280;16487;53.094;8.800;2023-06-22T09:05:58;101866.13;;;26.05;100.00
29549;BME280;16487;53.094;8.800;2023-06-22T09:08:45;101858.50;;;26.30;100.00
29549;BME280;16487;53.094;8.800;2023-06-22T09:11:33;101862.22;;;26.60;100.00
29549;BME280;16487;53.094;8.800;2023-06-22T09:14:21;101905.28;;;27.25;100.00
29549;BME280;16487;53.094;8.800;2023-06-22T09:17:09;101932.44;;;27.53;100.00
29549;BME280;16487;53.094;8.800;2023-06-22T09:19:56;101939.41;;;27.58;100.00
29549;BME280;16487;53.094;8.800;2023-06-22T09:22:45;101950.84;;;27.63;100.00
29549;BME280;16487;53.094;8.800;2023-06-22T09:25:33;101955.41;;;28.55;100.00
29549;BME280;16487;53.094;8.800;2023-06-22T09:28:21;101953.22;;;30.12;100.00
29549;BME280;16487;53.094;8.800;2023-06-22T09:31:08;101955.69;;;30.73;100.00
29549;BME280;16487;53.094;8.800;2023-06-22T09:33:56;101948.50;;;30.54;100.00
29549;BME280;16487;53.094;8.800;2023-06-22T09:36:44;101960.31;;;30.76;100.00
29549;BME280;16487;53.094;8.800;2023-06-22T09:39:33;101939.34;;;31.56;100.00
29549;BME280;16487;53.094;8.800;2023-06-22T09:42:21;101956.34;;;29.38;100.00
29549;BME280;16487;53.094;8.800;2023-06-22T09:45:09;101951.72;;;29.48;100.00
29549;BME280;16487;53.094;8.800;2023-06-22T09:47:57;101958.03;;;28.53;100.00
29549;BME280;16487;53.094;8.800;2023-06-22T09:50:44;101944.69;;;29.62;100.00
29549;BME280;16487;53.094;8.800;2023-06-22T09:53:32;101947.19;;;30.28;100.00
29549;BME280;16487;53.094;8.800;2023-06-22T09:56:21;101939.84;;;31.47;100.00
29549;BME280;16487;53.094;8.800;2023-06-22T09:59:09;101933.00;;;31.99;100.00
29549;BME280;16487;53.094;8.800;2023-06-22T10:02:06;101929.97;;;32.32;100.00
29549;BME280;16487;53.094;8.800;2023-06-22T10:04:54;101913.53;;;32.48;100.00
29549;BME280;16487;53.094;8.800;2023-06-22T10:07:42;101910.28;;;32.23;100.00
29549;BME280;16487;53.094;8.800;2023-06-22T10:10:30;101911.31;;;32.69;100.00
29549;BME280;16487;53.094;8.800;2023-06-22T10:13:19;101907.38;;;32.23;100.00
29549;BME280;16487;53.094;8.800;2023-06-22T10:16:07;101906.03;;;32.24;100.00
29549;BME280;16487;53.094;8.800;2023-06-22T10:18:54;101904.91;;;32.27;100.00
29549;BME280;16487;53.094;8.800;2023-06-22T10:21:42;101908.94;;;30.67;100.00
29549;BME280;16487;53.094;8.800;2023-06-22T10:24:30;101896.38;;;31.24;100.00
29549;BME280;16487;53.094;8.800;2023-06-22T10:27:18;101896.19;;;31.64;100.00
29549;BME280;16487;53.094;8.800;2023-06-22T10:30:08;101897.34;;;31.89;100.00
29549;BME280;16487;53.094;8.800;2023-06-22T10:32:56;101891.84;;;31.78;100.00
29549;BME280;16487;53.094;8.800;2023-06-22T10:35:44;101890.56;;;32.07;100.00
29549;BME280;16487;53.094;8.800;2023-06-22T10:38:32;101890.50;;;32.27;100.00
29549;BME280;16487;53.094;8.800;2023-06-22T10:41:20;101889.75;;;31.16;100.00
29549;BME280;16487;53.094;8.800;2023-06-22T10:44:08;101899.84;;;31.43;100.00
29549;BME280;16487;53.094;8.800;2023-06-22T10:46:57;101888.53;;;31.12;100.00
29549;BME280;16487;53.094;8.800;2023-06-22T10:49:46;101890.28;;;31.49;100.00
29549;BME280;16487;53.094;8.800;2023-06-22T10:52:34;101883.47;;;32.43;100.00
29549;BME280;16487;53.094;8.800;2023-06-22T10:55:21;101887.38;;;32.61;100.00
29549;BME280;16487;53.094;8.800;2023-06-22T10:58:09;101891.06;;;31.98;100.00
29549;BME280;16487;53.094;8.800;2023-06-22T11:00:59;101886.69;;;31.56;100.00
29549;BME280;16487;53.094;8.800;2023-06-22T11:03:48;101895.16;;;31.82;100.00
29549;BME280;16487;53.094;8.800;2023-06-22T11:06:36;101887.25;;;32.38;100.00
29549;BME280;16487;53.094;8.800;2023-06-22T11:09:25;101887.06;;;32.01;100.00
29549;BME280;16487;53.094;8.800;2023-06-22T11:12:16;101894.13;;;31.72;100.00
29549;BME280;16487;53.094;8.800;2023-06-22T11:15:04;101897.09;;;31.59;100.00
29549;BME280;16487;53.094;8.800;2023-06-22T11:17:52;101893.47;;;31.04;100.00
29549;BME280;16487;53.094;8.800;2023-06-22T11:20:42;101887.38;;;31.49;100.00
29549;BME280;16487;53.094;8.800;2023-06-22T11:23:29;101878.53;;;32.59;100.00
29549;BME280;16487;53.094;8.800;2023-06-22T11:26:17;101854.44;;;33.07;100.00
29549;BME280;16487;53.094;8.800;2023-06-22T11:29:04;101856.84;;;32.37;100.00
29549;BME280;16487;53.094;8.800;2023-06-22T11:31:52;101865.97;;;32.13;100.00
29549;BME280;16487;53.094;8.800;2023-06-22T11:34:40;101859.63;;;31.87;100.00
29549;BME280;16487;53.094;8.800;2023-06-22T11:37:29;101858.19;;;32.01;100.00
29549;BME280;16487;53.094;8.800;2023-06-22T11:40:17;101853.97;;;31.74;100.00
29549;BME280;16487;53.094;8.800;2023-06-22T11:43:04;101839.25;;;32.48;100.00
29549;BME280;16487;53.094;8.800;2023-06-22T11:45:52;101834.88;;;31.71;100.00
29549;BME280;16487;53.094;8.800;2023-06-22T11:48:40;101835.84;;;32.80;100.00
29549;BME280;16487;53.094;8.800;2023-06-22T11:51:27;101814.38;;;33.26;100.00
29549;BME280;16487;53.094;8.800;2023-06-22T11:54:18;101809.75;;;34.31;100.00
29549;BME280;16487;53.094;8.800;2023-06-22T11:57:05;101799.75;;;34.96;100.00
29549;BME280;16487;53.094;8.800;2023-06-22T11:59:53;101797.03;;;34.98;100.00
29549;BME280;16487;53.094;8.800;2023-06-22T12:02:41;101794.94;;;34.12;100.00
29549;BME280;16487;53.094;8.800;2023-06-22T12:05:28;101795.84;;;33.75;100.00
29549;BME280;16487;53.094;8.800;2023-06-22T12:08:16;101803.28;;;34.08;100.00
29549;BME280;16487;53.094;8.800;2023-06-22T12:11:05;101816.84;;;33.37;100.00
29549;BME280;16487;53.094;8.800;2023-06-22T12:13:53;101806.69;;;32.48;100.00
29549;BME280;16487;53.094;8.800;2023-06-22T12:16:41;101801.63;;;33.07;100.00
29549;BME280;16487;53.094;8.800;2023-06-22T12:19:28;101809.16;;;32.01;100.00
29549;BME280;16487;53.094;8.800;2023-06-22T12:22:16;101804.59;;;31.85;100.00
29549;BME280;16487;53.094;8.800;2023-06-22T12:25:04;101818.84;;;31.83;100.00
29549;BME280;16487;53.094;8.800;2023-06-22T12:27:54;101805.69;;;32.38;100.00
29549;BME280;16487;53.094;8.800;2023-06-22T12:30:41;101797.31;;;31.56;100.00
29549;BME280;16487;53.094;8.800;2023-06-22T12:33:29;101809.09;;;30.96;100.00
29549;BME280;16487;53.094;8.800;2023-06-22T12:36:17;101796.81;;;31.65;100.00
29549;BME280;16487;53.094;8.800;2023-06-22T12:39:04;101781.28;;;32.03;100.00
29549;BME280;16487;53.094;8.800;2023-06-22T12:41:59;101780.78;;;32.20;100.00
29549;BME280;16487;53.094;8.800;2023-06-22T12:44:49;101779.41;;;31.50;100.00
29549;BME280;16487;53.094;8.800;2023-06-22T12:47:37;101780.84;;;30.94;100.00
29549;BME280;16487;53.094;8.800;2023-06-22T12:50:25;101771.41;;;30.73;100.00
29549;BME280;16487;53.094;8.800;2023-06-22T12:53:13;101761.44;;;29.94;100.00
29549;BME280;16487;53.094;8.800;2023-06-22T12:56:00;101762.72;;;29.41;100.00
29549;BME280;16487;53.094;8.800;2023-06-22T12:58:48;101760.09;;;29.43;100.00
29549;BME280;16487;53.094;8.800;2023-06-22T13:01:37;101755.53;;;29.21;100.00
29549;BME280;16487;53.094;8.800;2023-06-22T13:04:25;101753.22;;;29.19;100.00
29549;BME280;16487;53.094;8.800;2023-06-22T13:07:12;101743.59;;;29.17;100.00
29549;BME280;16487;53.094;8.800;2023-06-22T13:10:10;101745.72;;;29.30;100.00
29549;BME280;16487;53.094;8.800;2023-06-22T13:12:57;101743.38;;;29.15;100.00
29549;BME280;16487;53.094;8.800;2023-06-22T13:15:45;101732.91;;;29.17;100.00
29549;BME280;16487;53.094;8.800;2023-06-22T13:18:34;101733.25;;;28.95;100.00
29549;BME280;16487;53.094;8.800;2023-06-22T13:21:22;101739.31;;;29.37;100.00
29549;BME280;16487;53.094;8.800;2023-06-22T13:24:12;101749.50;;;29.51;100.00
29549;BME280;16487;53.094;8.800;2023-06-22T13:26:59;101744.41;;;29.44;100.00
29549;BME280;16487;53.094;8.800;2023-06-22T13:29:47;101738.75;;;29.25;100.00
29549;BME280;16487;53.094;8.800;2023-06-22T13:32:35;101747.81;;;28.97;100.00
29549;BME280;16487;53.094;8.800;2023-06-22T13:35:24;101749.81;;;29.02;100.00
29549;BME280;16487;53.094;8.800;2023-06-22T13:38:11;101749.94;;;28.97;100.00
29549;BME280;16487;53.094;8.800;2023-06-22T13:40:59;101742.50;;;28.88;100.00
29549;BME280;16487;53.094;8.800;2023-06-22T13:43:47;101738.00;;;28.61;100.00
29549;BME280;16487;53.094;8.800;2023-06-22T13:46:37;101741.81;;;28.51;100.00
29549;BME280;16487;53.094;8.800;2023-06-22T13:49:24;101724.22;;;28.41;100.00
29549;BME280;16487;53.094;8.800;2023-06-22T13:52:13;101732.75;;;28.28;100.00
29549;BME280;16487;53.094;8.800;2023-06-22T13:55:01;101728.88;;;28.07;100.00
29549;BME280;16487;53.094;8.800;2023-06-22T13:57:49;101722.69;;;28.03;100.00
29549;BME280;16487;53.094;8.800;2023-06-22T14:00:37;101723.78;;;28.18;100.00
29549;BME280;16487;53.094;8.800;2023-06-22T14:03:25;101720.84;;;28.24;100.00
29549;BME280;16487;53.094;8.800;2023-06-22T14:06:12;101722.59;;;28.27;100.00
29549;BME280;16487;53.094;8.800;2023-06-22T14:09:01;101710.91;;;28.25;100.00
29549;BME280;16487;53.094;8.800;2023-06-22T14:11:49;101695.41;;;28.15;100.00
29549;BME280;16487;53.094;8.800;2023-06-22T14:14:37;101683.00;;;28.07;100.00
29549;BME280;16487;53.094;8.800;2023-06-22T14:17:25;101669.72;;;27.91;100.00
29549;BME280;16487;53.094;8.800;2023-06-22T14:20:13;101663.72;;;27.89;100.00
29549;BME280;16487;53.094;8.800;2023-06-22T14:23:02;101652.88;;;27.63;100.00
29549;BME280;16487;53.094;8.800;2023-06-22T14:25:52;101655.38;;;27.48;100.00
29549;BME280;16487;53.094;8.800;2023-06-22T14:28:39;101651.66;;;27.35;100.00
29549;BME280;16487;53.094;8.800;2023-06-22T14:31:27;101649.63;;;27.30;100.00
29549;BME280;16487;53.094;8.800;2023-06-22T14:34:15;101639.13;;;27.38;100.00